sensor_id;sensor_type;location;lat;lon;timestamp;pressure;altitude;pressure_sealevel;temperature;humidity
16094;BME280;8151;47.824;12.092;2023-03-04T00:01:43;96627.81;;;3.92;78.24
16094;BME280;8151;47.824;12.092;2023-03-04T00:04:11;96632.94;;;3.82;77.99
16094;BME280;8151;47.824;12.092;2023-03-04T00:06:40;96632.22;;;3.80;78.01
16094;BME280;8151;47.824;12.092;2023-03-04T00:09:09;96633.28;;;3.78;78.10
16094;BME280;8151;47.824;12.092;2023-03-04T00:11:38;96635.19;;;3.75;78.22
16094;BME280;8151;47.824;12.092;2023-03-04T00:14:06;96634.00;;;3.68;77.80
16094;BME280;8151;47.824;12.092;2023-03-04T00:16:35;96631.03;;;3.62;78.06
16094;BME280;8151;47.824;12.092;2023-03-04T00:19:04;96626.75;;;3.49;78.23
16094;BME280;8151;47.824;12.092;2023-03-04T00:21:32;96628.16;;;3.42;78.35
16094;BME280;8151;47.824;12.092;2023-03-04T00:24:00;96633.38;;;3.42;78.28
16094;BME280;8151;47.824;12.092;2023-03-04T00:26:30;96627.31;;;3.42;78.21
16094;BME280;8151;47.824;12.092;2023-03-04T00:28:59;96633.50;;;3.41;78.30
16094;BME280;8151;47.824;12.092;2023-03-04T00:31:27;96638.97;;;3.38;78.41
16094;BME280;8151;47.824;12.092;2023-03-04T00:33:56;96633.38;;;3.42;78.52
16094;BME280;8151;47.824;12.092;2023-03-04T00:36:24;96628.28;;;3.52;78.02
16094;BME280;8151;47.824;12.092;2023-03-04T00:38:53;96630.31;;;3.60;78.19
16094;BME280;8151;47.824;12.092;2023-03-04T00:41:21;96631.50;;;3.67;77.90
16094;BME280;8151;47.824;12.092;2023-03-04T00:43:51;96629.94;;;3.64;77.81
16094;BME280;8151;47.824;12.092;2023-03-04T00:46:20;96630.19;;;3.61;77.92
16094;BME280;8151;47.824;12.092;2023-03-04T00:48:48;96630.19;;;3.61;77.90
16094;BME280;8151;47.824;12.092;2023-03-04T00:51:17;96630.53;;;3.57;78.02
16094;BME280;8151;47.824;12.092;2023-03-04T00:53:45;96631.59;;;3.54;78.47
16094;BME280;8151;47.824;12.092;2023-03-04T00:56:14;96632.31;;;3.56;77.98
16094;BME280;8151;47.824;12.092;2023-03-04T00:58:42;96628.63;;;3.59;78.08
16094;BME280;8151;47.824;12.092;2023-03-04T01:01:12;96626.75;;;3.61;78.02
16094;BME280;8151;47.824;12.092;2023-03-04T01:03:40;96629.00;;;3.65;78.01
16094;BME280;8151;47.824;12.092;2023-03-04T01:06:08;96620.19;;;3.66;78.09
16094;BME280;8151;47.824;12.092;2023-03-04T01:08:37;96622.34;;;3.61;77.81
16094;BME280;8151;47.824;12.092;2023-03-04T01:11:06;96625.78;;;3.50;77.91
16094;BME280;8151;47.824;12.092;2023-03-04T01:13:34;96620.53;;;3.39;77.66
16094;BME280;8151;47.824;12.092;2023-03-04T01:16:03;96619.69;;;3.27;78.00
16094;BME280;8151;47.824;12.092;2023-03-04T01:18:33;96619.94;;;3.24;78.26
16094;BME280;8151;47.824;12.092;2023-03-04T01:21:02;96615.41;;;3.26;78.30
16094;BME280;8151;47.824;12.092;2023-03-04T01:23:30;96618.75;;;3.28;78.24
16094;BME280;8151;47.824;12.092;2023-03-04T01:25:59;96622.69;;;3.34;77.83
16094;BME280;8151;47.824;12.092;2023-03-04T01:28:27;96619.34;;;3.32;77.72
16094;BME280;8151;47.824;12.092;2023-03-04T01:30:57;96621.13;;;3.20;77.68
16094;BME280;8151;47.824;12.092;2023-03-04T01:33:25;96622.88;;;3.08;77.81
16094;BME280;8151;47.824;12.092;2023-03-04T01:35:55;96612.03;;;3.02;78.01
16094;BME280;8151;47.824;12.092;2023-03-04T01:38:24;96616.53;;;3.00;77.97
16094;BME280;8151;47.824;12.092;2023-03-04T01:40:52;96611.31;;;3.00;77.96
16094;BME280;8151;47.824;12.092;2023-03-04T01:43:23;96617.88;;;3.05;77.86
16094;BME280;8151;47.824;12.092;2023-03-04T01:45:53;96614.66;;;3.02;77.73
16094;BME280;8151;47.824;12.092;2023-03-04T01:48:24;96615.13;;;2.95;77.77
16094;BME280;8151;47.824;12.092;2023-03-04T01:50:56;96614.16;;;2.85;77.81
16094;BME280;8151;47.824;12.092;2023-03-04T01:53:30;96606.72;;;2.79;78.01
16094;BME280;8151;47.824;12.092;2023-03-04T01:56:01;96609.34;;;2.79;78.20
16094;BME280;8151;47.824;12.092;2023-03-04T01:58:31;96600.78;;;2.77;77.96
16094;BME280;8151;47.824;12.092;2023-03-04T02:01:00;96604.38;;;2.76;77.88
16094;BME280;8151;47.824;12.092;2023-03-04T02:03:29;96598.53;;;2.72;77.84
16094;BME280;8151;47.824;12.092;2023-03-04T02:05:59;96593.66;;;2.68;77.75
16094;BME280;8151;47.824;12.092;2023-03-04T02:08:27;96586.72;;;2.55;77.99
16094;BME280;8151;47.824;12.092;2023-03-04T02:10:55;96583.63;;;2.50;77.76
16094;BME280;8151;47.824;12.092;2023-03-04T02:13:24;96584.81;;;2.46;77.89
16094;BME280;8151;47.824;12.092;2023-03-04T02:15:52;96587.84;;;2.40;77.92
16094;BME280;8151;47.824;12.092;2023-03-04T02:18:23;96587.66;;;2.30;78.33
16094;BME280;8151;47.824;12.092;2023-03-04T02:20:57;96582.59;;;2.29;78.02
16094;BME280;8151;47.824;12.092;2023-03-04T02:23:34;96579.47;;;2.24;78.19
16094;BME280;8151;47.824;12.092;2023-03-04T02:26:13;96573.53;;;2.22;78.06
16094;BME280;8151;47.824;12.092;2023-03-04T02:28:43;96570.81;;;2.23;77.89
16094;BME280;8151;47.824;12.092;2023-03-04T02:31:21;96569.75;;;2.26;78.15
16094;BME280;8151;47.824;12.092;2023-03-04T02:33:50;96569.53;;;2.29;77.95
16094;BME280;8151;47.824;12.092;2023-03-04T02:36:19;96571.28;;;2.28;77.94
16094;BME280;8151;47.824;12.092;2023-03-04T02:38:48;96563.56;;;2.27;77.74
16094;BME280;8151;47.824;12.092;2023-03-04T02:41:22;96563.44;;;2.28;78.02
16094;BME280;8151;47.824;12.092;2023-03-04T02:43:53;96562.97;;;2.23;77.79
16094;BME280;8151;47.824;12.092;2023-03-04T02:46:22;96556.91;;;2.23;77.76
16094;BME280;8151;47.824;12.092;2023-03-04T02:48:51;96568.75;;;2.15;77.91
16094;BME280;8151;47.824;12.092;2023-03-04T02:51:19;96563.13;;;2.09;78.02
16094;BME280;8151;47.824;12.092;2023-03-04T02:53:48;96562.91;;;2.12;78.25
16094;BME280;8151;47.824;12.092;2023-03-04T02:56:16;96563.53;;;2.15;78.01
16094;BME280;8151;47.824;12.092;2023-03-04T02:58:46;96554.63;;;2.18;78.03
16094;BME280;8151;47.824;12.092;2023-03-04T03:01:14;96561.53;;;2.19;77.91
16094;BME280;8151;47.824;12.092;2023-03-04T03:03:43;96559.50;;;2.23;77.99
16094;BME280;8151;47.824;12.092;2023-03-04T03:06:11;96554.19;;;2.24;77.78
16094;BME280;8151;47.824;12.092;2023-03-04T03:08:39;96561.91;;;2.26;77.82
16094;BME280;8151;47.824;12.092;2023-03-04T03:11:08;96550.75;;;2.24;78.18
16094;BME280;8151;47.824;12.092;2023-03-04T03:13:36;96568.06;;;2.25;78.13
16094;BME280;8151;47.824;12.092;2023-03-04T03:16:06;96555.00;;;2.25;78.06
16094;BME280;8151;47.824;12.092;2023-03-04T03:18:36;96564.31;;;2.29;78.08
16094;BME280;8151;47.824;12.092;2023-03-04T03:21:05;96560.53;;;2.33;77.95
16094;BME280;8151;47.824;12.092;2023-03-04T03:23:33;96565.75;;;2.33;77.88
16094;BME280;8151;47.824;12.092;2023-03-04T03:26:02;96559.75;;;2.20;78.20
16094;BME280;8151;47.824;12.092;2023-03-04T03:28:30;96569.16;;;2.09;78.28
16094;BME280;8151;47.824;12.092;2023-03-04T03:30:59;96556.47;;;2.05;78.45
16094;BME280;8151;47.824;12.092;2023-03-04T03:33:29;96557.53;;;2.02;78.29
16094;BME280;8151;47.824;12.092;2023-03-04T03:35:58;96564.63;;;2.00;78.08
16094;BME280;8151;47.824;12.092;2023-03-04T03:38:27;96562.84;;;2.01;78.23
16094;BME280;8151;47.824;12.092;2023-03-04T03:40:55;96560.25;;;2.01;78.03
16094;BME280;8151;47.824;12.092;2023-03-04T03:43:24;96561.16;;;2.00;77.86
16094;BME280;8151;47.824;12.092;2023-03-04T03:45:52;96571.75;;;1.98;77.81
16094;BME280;8151;47.824;12.092;2023-03-04T03:48:21;96566.63;;;1.96;78.14
16094;BME280;8151;47.824;12.092;2023-03-04T03:50:50;96567.56;;;1.95;77.66
16094;BME280;8151;47.824;12.092;2023-03-04T03:53:19;96570.06;;;1.97;77.74
16094;BME280;8151;47.824;12.092;2023-03-04T03:55:47;96571.13;;;1.94;78.04
16094;BME280;8151;47.824;12.092;2023-03-04T03:58:16;96566.94;;;1.92;78.07
16094;BME280;8151;47.824;12.092;2023-03-04T04:00:44;96569.13;;;1.98;78.14
16094;BME280;8151;47.824;12.092;2023-03-04T04:03:13;96562.31;;;2.08;77.97
16094;BME280;8151;47.824;12.092;2023-03-04T04:05:42;96566.13;;;2.15;77.98
16094;BME280;8151;47.824;12.092;2023-03-04T04:08:13;96569.38;;;2.19;77.57
16094;BME280;8151;47.824;12.092;2023-03-04T04:10:42;96569.03;;;2.24;77.48
16094;BME280;8151;47.824;12.092;2023-03-04T04:13:10;96570.47;;;2.28;77.72
16094;BME280;8151;47.824;12.092;2023-03-04T04:15:39;96571.28;;;2.28;77.57
16094;BME280;8151;47.824;12.092;2023-03-04T04:18:07;96565.75;;;2.33;77.57
16094;BME280;8151;47.824;12.092;2023-03-04T04:20:36;96567.09;;;2.39;77.66
16094;BME280;8151;47.824;12.092;2023-03-04T04:23:04;96573.84;;;2.41;77.49
16094;BME280;8151;47.824;12.092;2023-03-04T04:25:34;96570.16;;;2.44;77.61
16094;BME280;8151;47.824;12.092;2023-03-04T04:28:03;96569.84;;;2.48;77.41
16094;BME280;8151;47.824;12.092;2023-03-04T04:30:31;96568.78;;;2.51;77.33
16094;BME280;8151;47.824;12.092;2023-03-04T04:33:00;96571.50;;;2.49;77.42
16094;BME280;8151;47.824;12.092;2023-03-04T04:35:31;96564.38;;;2.51;77.25
16094;BME280;8151;47.824;12.092;2023-03-04T04:38:00;96565.19;;;2.52;77.43
16094;BME280;8151;47.824;12.092;2023-03-04T04:40:28;96560.84;;;2.52;77.63
16094;BME280;8151;47.824;12.092;2023-03-04T04:42:58;96567.81;;;2.52;77.48
16094;BME280;8151;47.824;12.092;2023-03-04T04:45:27;96565.44;;;2.49;77.63
16094;BME280;8151;47.824;12.092;2023-03-04T04:47:55;96565.44;;;2.49;77.58
16094;BME280;8151;47.824;12.092;2023-03-04T04:50:24;96565.56;;;2.47;77.86
16094;BME280;8151;47.824;12.092;2023-03-04T04:52:52;96573.19;;;2.50;77.80
16094;BME280;8151;47.824;12.092;2023-03-04T04:55:21;96554.75;;;2.52;77.75
16094;BME280;8151;47.824;12.092;2023-03-04T04:57:49;96559.25;;;2.50;77.83
16094;BME280;8151;47.824;12.092;2023-03-04T05:00:19;96562.13;;;2.47;77.86
16094;BME280;8151;47.824;12.092;2023-03-04T05:02:48;96563.66;;;2.49;77.79
16094;BME280;8151;47.824;12.092;2023-03-04T05:05:16;96566.50;;;2.46;77.84
16094;BME280;8151;47.824;12.092;2023-03-04T05:07:49;96561.50;;;2.43;77.95
16094;BME280;8151;47.824;12.092;2023-03-04T05:10:18;96565.06;;;2.42;78.11
16094;BME280;8151;47.824;12.092;2023-03-04T05:12:46;96566.72;;;2.43;78.08
16094;BME280;8151;47.824;12.092;2023-03-04T05:15:16;96569.13;;;2.46;77.91
16094;BME280;8151;47.824;12.092;2023-03-04T05:17:46;96569.00;;;2.48;77.89
16094;BME280;8151;47.824;12.092;2023-03-04T05:20:15;96576.81;;;2.48;77.74
16094;BME280;8151;47.824;12.092;2023-03-04T05:22:43;96567.00;;;2.51;77.61
16094;BME280;8151;47.824;12.092;2023-03-04T05:25:12;96569.28;;;2.56;77.88
16094;BME280;8151;47.824;12.092;2023-03-04T05:27:40;96573.53;;;2.57;77.65
16094;BME280;8151;47.824;12.092;2023-03-04T05:30:10;96572.47;;;2.60;77.64
16094;BME280;8151;47.824;12.092;2023-03-04T05:32:39;96560.97;;;2.62;77.54
16094;BME280;8151;47.824;12.092;2023-03-04T05:35:09;96565.75;;;2.68;77.41
16094;BME280;8151;47.824;12.092;2023-03-04T05:37:37;96575.13;;;2.71;77.48
16094;BME280;8151;47.824;12.092;2023-03-04T05:40:07;96569.69;;;2.74;77.46
16094;BME280;8151;47.824;12.092;2023-03-04T05:42:36;96575.84;;;2.73;77.36
16094;BME280;8151;47.824;12.092;2023-03-04T05:45:05;96577.41;;;2.75;77.44
16094;BME280;8151;47.824;12.092;2023-03-04T05:47:34;96574.66;;;2.77;77.34
16094;BME280;8151;47.824;12.092;2023-03-04T05:50:03;96573.63;;;2.80;77.35
16094;BME280;8151;47.824;12.092;2023-03-04T05:52:32;96574.56;;;2.79;77.38
16094;BME280;8151;47.824;12.092;2023-03-04T05:55:01;96576.13;;;2.81;77.29
16094;BME280;8151;47.824;12.092;2023-03-04T05:57:32;96572.44;;;2.84;77.36
16094;BME280;8151;47.824;12.092;2023-03-04T06:00:00;96576.00;;;2.83;77.50
16094;BME280;8151;47.824;12.092;2023-03-04T06:02:31;96583.00;;;2.82;77.59
16094;BME280;8151;47.824;12.092;2023-03-04T06:04:59;96579.47;;;2.83;77.79
16094;BME280;8151;47.824;12.092;2023-03-04T06:07:34;96585.16;;;2.88;77.72
16094;BME280;8151;47.824;12.092;2023-03-04T06:10:02;96588.38;;;2.92;77.65
16094;BME280;8151;47.824;12.092;2023-03-04T06:12:31;96588.59;;;2.89;77.79
16094;BME280;8151;47.824;12.092;2023-03-04T06:14:59;96598.69;;;2.82;77.80
16094;BME280;8151;47.824;12.092;2023-03-04T06:17:29;96591.81;;;2.81;77.78
16094;BME280;8151;47.824;12.092;2023-03-04T06:19:57;96598.56;;;2.84;77.83
16094;BME280;8151;47.824;12.092;2023-03-04T06:22:26;96602.63;;;2.88;77.83
16094;BME280;8151;47.824;12.092;2023-03-04T06:24:55;96616.50;;;2.88;77.74
16094;BME280;8151;47.824;12.092;2023-03-04T06:27:24;96616.75;;;2.85;77.85
16094;BME280;8151;47.824;12.092;2023-03-04T06:29:52;96617.59;;;2.86;78.04
16094;BME280;8151;47.824;12.092;2023-03-04T06:32:21;96624.47;;;2.87;77.88
16094;BME280;8151;47.824;12.092;2023-03-04T06:34:49;96621.03;;;2.86;77.90
16094;BME280;8151;47.824;12.092;2023-03-04T06:37:18;96626.50;;;2.83;77.92
16094;BME280;8151;47.824;12.092;2023-03-04T06:39:46;96625.63;;;2.83;78.07
16094;BME280;8151;47.824;12.092;2023-03-04T06:42:16;96623.75;;;2.85;78.10
16094;BME280;8151;47.824;12.092;2023-03-04T06:44:45;96626.34;;;2.85;77.99
16094;BME280;8151;47.824;12.092;2023-03-04T06:47:15;96631.38;;;2.88;78.02
16094;BME280;8151;47.824;12.092;2023-03-04T06:49:44;96627.56;;;2.92;77.99
16094;BME280;8151;47.824;12.092;2023-03-04T06:52:13;96633.50;;;2.94;78.07
16094;BME280;8151;47.824;12.092;2023-03-04T06:54:41;96633.75;;;2.91;78.17
16094;BME280;8151;47.824;12.092;2023-03-04T06:57:10;96633.16;;;2.87;78.24
16094;BME280;8151;47.824;12.092;2023-03-04T06:59:40;96633.00;;;2.89;78.03
16094;BME280;8151;47.824;12.092;2023-03-04T07:02:10;96629.56;;;2.88;78.14
16094;BME280;8151;47.824;12.092;2023-03-04T07:04:39;96628.66;;;2.89;78.13
16094;BME280;8151;47.824;12.092;2023-03-04T07:07:07;96636.03;;;2.95;78.20
16094;BME280;8151;47.824;12.092;2023-03-04T07:09:35;96629.41;;;3.03;78.07
16094;BME280;8151;47.824;12.092;2023-03-04T07:12:04;96633.44;;;3.07;77.90
16094;BME280;8151;47.824;12.092;2023-03-04T07:14:33;96633.91;;;3.12;78.07
16094;BME280;8151;47.824;12.092;2023-03-04T07:17:02;96639.41;;;3.20;78.06
16094;BME280;8151;47.824;12.092;2023-03-04T07:19:31;96636.94;;;3.30;77.97
16094;BME280;8151;47.824;12.092;2023-03-04T07:21:59;96641.59;;;3.38;78.03
16094;BME280;8151;47.824;12.092;2023-03-04T07:24:27;96637.19;;;3.38;78.04
16094;BME280;8151;47.824;12.092;2023-03-04T07:26:56;96644.66;;;3.43;78.14
16094;BME280;8151;47.824;12.092;2023-03-04T07:29:24;96645.16;;;3.48;77.93
16094;BME280;8151;47.824;12.092;2023-03-04T07:31:53;96645.88;;;3.50;77.80
16094;BME280;8151;47.824;12.092;2023-03-04T07:34:23;96645.66;;;3.53;78.04
16094;BME280;8151;47.824;12.092;2023-03-04T07:36:51;96650.88;;;3.53;78.06
16094;BME280;8151;47.824;12.092;2023-03-04T07:39:20;96644.47;;;3.57;77.95
16094;BME280;8151;47.824;12.092;2023-03-04T07:41:48;96648.97;;;3.66;77.96
16094;BME280;8151;47.824;12.092;2023-03-04T07:44:17;96643.03;;;3.75;78.09
16094;BME280;8151;47.824;12.092;2023-03-04T07:46:45;96642.31;;;3.85;77.91
16094;BME280;8151;47.824;12.092;2023-03-04T07:49:14;96646.13;;;3.92;77.75
16094;BME280;8151;47.824;12.092;2023-03-04T07:51:43;96642.91;;;4.00;78.00
16094;BME280;8151;47.824;12.092;2023-03-04T07:54:12;96646.97;;;4.04;78.04
16094;BME280;8151;47.824;12.092;2023-03-04T07:56:40;96659.69;;;4.08;77.67
16094;BME280;8151;47.824;12.092;2023-03-04T07:59:08;96647.19;;;4.12;78.14
16094;BME280;8151;47.824;12.092;2023-03-04T08:01:37;96643.47;;;4.14;78.01
16094;BME280;8151;47.824;12.092;2023-03-04T08:04:06;96652.53;;;4.22;77.83
16094;BME280;8151;47.824;12.092;2023-03-04T08:06:35;96651.78;;;4.31;77.59
16094;BME280;8151;47.824;12.092;2023-03-04T08:09:06;96654.63;;;4.39;77.70
16094;BME280;8151;47.824;12.092;2023-03-04T08:11:36;96653.91;;;4.48;77.53
16094;BME280;8151;47.824;12.092;2023-03-04T08:14:05;96647.06;;;4.57;77.77
16094;BME280;8151;47.824;12.092;2023-03-04T08:16:35;96647.53;;;4.62;77.39
16094;BME280;8151;47.824;12.092;2023-03-04T08:19:04;96646.00;;;4.60;77.86
16094;BME280;8151;47.824;12.092;2023-03-04T08:21:33;96645.16;;;4.59;77.64
16094;BME280;8151;47.824;12.092;2023-03-04T08:24:03;96652.31;;;4.57;77.95
16094;BME280;8151;47.824;12.092;2023-03-04T08:26:41;96655.31;;;4.52;78.25
16094;BME280;8151;47.824;12.092;2023-03-04T08:29:11;96646.47;;;4.53;78.18
16094;BME280;8151;47.824;12.092;2023-03-04T08:31:41;96652.47;;;4.56;77.83
16094;BME280;8151;47.824;12.092;2023-03-04T08:34:15;96654.56;;;4.62;77.78
16094;BME280;8151;47.824;12.092;2023-03-04T08:36:44;96659.31;;;4.68;78.20
16094;BME280;8151;47.824;12.092;2023-03-04T08:39:14;96654.91;;;4.68;78.25
16094;BME280;8151;47.824;12.092;2023-03-04T08:41:45;96650.88;;;4.64;77.84
16094;BME280;8151;47.824;12.092;2023-03-04T08:44:14;96656.50;;;4.60;78.37
16094;BME280;8151;47.824;12.092;2023-03-04T08:46:43;96652.06;;;4.60;78.25
16094;BME280;8151;47.824;12.092;2023-03-04T08:49:11;96646.00;;;4.60;78.53
16094;BME280;8151;47.824;12.092;2023-03-04T08:51:40;96648.75;;;4.58;77.97
16094;BME280;8151;47.824;12.092;2023-03-04T08:54:11;96649.97;;;4.54;78.11
16094;BME280;8151;47.824;12.092;2023-03-04T08:56:39;96655.09;;;4.56;78.51
16094;BME280;8151;47.824;12.092;2023-03-04T08:59:09;96647.94;;;4.58;78.77
16094;BME280;8151;47.824;12.092;2023-03-04T09:01:37;96649.34;;;4.62;78.06
16094;BME280;8151;47.824;12.092;2023-03-04T09:04:06;96649.66;;;4.68;78.15
16094;BME280;8151;47.824;12.092;2023-03-04T09:06:34;96649.03;;;4.76;78.25
16094;BME280;8151;47.824;12.092;2023-03-04T09:09:03;96649.38;;;4.83;78.04
16094;BME280;8151;47.824;12.092;2023-03-04T09:11:32;96650.66;;;4.88;78.47
16094;BME280;8151;47.824;12.092;2023-03-04T09:14:00;96655.16;;;4.98;78.19
16094;BME280;8151;47.824;12.092;2023-03-04T09:16:30;96644.72;;;5.07;78.03
16094;BME280;8151;47.824;12.092;2023-03-04T09:18:59;96642.28;;;5.16;77.43
16094;BME280;8151;47.824;12.092;2023-03-04T09:21:27;96647.06;;;5.22;77.46
16094;BME280;8151;47.824;12.092;2023-03-04T09:23:56;96640.72;;;5.24;77.50
16094;BME280;8151;47.824;12.092;2023-03-04T09:26:26;96635.22;;;5.27;78.17
16094;BME280;8151;47.824;12.092;2023-03-04T09:28:57;96637.56;;;5.30;77.71
16094;BME280;8151;47.824;12.092;2023-03-04T09:31:26;96633.59;;;5.36;78.05
16094;BME280;8151;47.824;12.092;2023-03-04T09:33:58;96627.81;;;5.42;78.22
16094;BME280;8151;47.824;12.092;2023-03-04T09:36:26;96634.22;;;5.49;78.23
16094;BME280;8151;47.824;12.092;2023-03-04T09:38:58;96632.75;;;5.57;77.66
16094;BME280;8151;47.824;12.092;2023-03-04T09:41:35;96629.72;;;5.61;77.65
16094;BME280;8151;47.824;12.092;2023-03-04T09:44:10;96627.81;;;5.63;77.84
16094;BME280;8151;47.824;12.092;2023-03-04T09:46:42;96619.81;;;5.65;78.10
16094;BME280;8151;47.824;12.092;2023-03-04T09:49:14;96623.81;;;5.69;78.05
16094;BME280;8151;47.824;12.092;2023-03-04T09:51:50;96622.03;;;5.69;78.05
16094;BME280;8151;47.824;12.092;2023-03-04T09:54:30;96619.97;;;5.73;78.22
16094;BME280;8151;47.824;12.092;2023-03-04T09:57:14;96614.19;;;5.79;77.99
16094;BME280;8151;47.824;12.092;2023-03-04T09:59:51;96609.66;;;5.91;77.60
16094;BME280;8151;47.824;12.092;2023-03-04T10:02:29;96618.31;;;6.03;77.78
16094;BME280;8151;47.824;12.092;2023-03-04T10:05:05;96614.72;;;6.04;77.61
16094;BME280;8151;47.824;12.092;2023-03-04T10:07:37;96611.16;;;6.05;77.35
16094;BME280;8151;47.824;12.092;2023-03-04T10:10:13;96614.31;;;6.08;77.41
16094;BME280;8151;47.824;12.092;2023-03-04T10:12:45;96610.31;;;6.14;77.63
16094;BME280;8151;47.824;12.092;2023-03-04T10:15:22;96611.31;;;6.23;77.53
16094;BME280;8151;47.824;12.092;2023-03-04T10:17:57;96603.84;;;6.28;77.09
16094;BME280;8151;47.824;12.092;2023-03-04T10:20:40;96603.03;;;6.37;77.68
16094;BME280;8151;47.824;12.092;2023-03-04T10:23:15;96593.09;;;6.50;77.26
16094;BME280;8151;47.824;12.092;2023-03-04T10:25:45;96587.28;;;6.66;77.20
16094;BME280;8151;47.824;12.092;2023-03-04T10:28:24;96590.91;;;6.85;76.87
16094;BME280;8151;47.824;12.092;2023-03-04T10:30:58;96581.31;;;7.03;77.12
16094;BME280;8151;47.824;12.092;2023-03-04T10:33:29;96583.38;;;7.19;76.87
16094;BME280;8151;47.824;12.092;2023-03-04T10:36:03;96582.34;;;7.40;76.47
16094;BME280;8151;47.824;12.092;2023-03-04T10:38:35;96582.59;;;7.56;76.63
16094;BME280;8151;47.824;12.092;2023-03-04T10:41:11;96581.44;;;7.68;76.73
16094;BME280;8151;47.824;12.092;2023-03-04T10:43:41;96582.88;;;7.81;76.61
16094;BME280;8151;47.824;12.092;2023-03-04T10:46:11;96582.03;;;7.90;76.10
16094;BME280;8151;47.824;12.092;2023-03-04T10:48:41;96578.44;;;7.91;75.90
16094;BME280;8151;47.824;12.092;2023-03-04T10:51:18;96580.31;;;7.99;75.80
16094;BME280;8151;47.824;12.092;2023-03-04T10:53:49;96575.38;;;8.14;75.85
16094;BME280;8151;47.824;12.092;2023-03-04T10:56:36;96570.28;;;8.30;74.72
16094;BME280;8151;47.824;12.092;2023-03-04T10:59:38;96569.16;;;8.33;74.71
16094;BME280;8151;47.824;12.092;2023-03-04T11:02:17;96560.44;;;8.32;74.90
16094;BME280;8151;47.824;12.092;2023-03-04T11:05:05;96557.19;;;8.38;74.72
16094;BME280;8151;47.824;12.092;2023-03-04T11:07:39;96559.09;;;8.46;74.64
16094;BME280;8151;47.824;12.092;2023-03-04T11:10:23;96553.50;;;8.49;74.72
16094;BME280;8151;47.824;12.092;2023-03-04T11:12:59;96558.09;;;8.47;74.07
16094;BME280;8151;47.824;12.092;2023-03-04T11:15:29;96552.00;;;8.46;74.32
16094;BME280;8151;47.824;12.092;2023-03-04T11:18:02;96557.44;;;8.45;74.13
16094;BME280;8151;47.824;12.092;2023-03-04T11:20:32;96555.31;;;8.48;74.21
16094;BME280;8151;47.824;12.092;2023-03-04T11:23:05;96547.19;;;8.60;73.77
16094;BME280;8151;47.824;12.092;2023-03-04T11:25:41;96547.94;;;8.70;73.59
16094;BME280;8151;47.824;12.092;2023-03-04T11:28:14;96542.47;;;8.90;73.71
16094;BME280;8151;47.824;12.092;2023-03-04T11:30:49;96538.50;;;9.03;73.22
16094;BME280;8151;47.824;12.092;2023-03-04T11:33:23;96536.88;;;9.11;73.29
16094;BME280;8151;47.824;12.092;2023-03-04T11:35:58;96530.81;;;9.18;72.65
16094;BME280;8151;47.824;12.092;2023-03-04T11:38:35;96530.38;;;9.23;72.65
16094;BME280;8151;47.824;12.092;2023-03-04T11:41:10;96531.47;;;9.20;72.54
16094;BME280;8151;47.824;12.092;2023-03-04T11:43:42;96528.13;;;9.10;72.39
16094;BME280;8151;47.824;12.092;2023-03-04T11:46:26;96525.22;;;8.95;71.94
16094;BME280;8151;47.824;12.092;2023-03-04T11:49:10;96522.00;;;8.83;72.00
16094;BME280;8151;47.824;12.092;2023-03-04T11:51:46;96523.66;;;8.84;71.50
16094;BME280;8151;47.824;12.092;2023-03-04T11:54:24;96516.94;;;8.90;71.34
16094;BME280;8151;47.824;12.092;2023-03-04T11:56:59;96518.72;;;9.07;70.82
16094;BME280;8151;47.824;12.092;2023-03-04T11:59:44;96508.41;;;9.22;69.06
16094;BME280;8151;47.824;12.092;2023-03-04T12:02:16;96515.25;;;9.33;69.56
16094;BME280;8151;47.824;12.092;2023-03-04T12:05:02;96513.31;;;9.43;68.54
16094;BME280;8151;47.824;12.092;2023-03-04T12:10:40;96499.91;;;9.37;68.94
16094;BME280;8151;47.824;12.092;2023-03-04T12:13:22;96497.41;;;9.35;68.61
16094;BME280;8151;47.824;12.092;2023-03-04T12:16:04;96495.81;;;9.42;67.90
16094;BME280;8151;47.824;12.092;2023-03-04T12:18:46;96495.50;;;9.54;68.08
16094;BME280;8151;47.824;12.092;2023-03-04T12:21:30;96493.44;;;9.65;66.79
16094;BME280;8151;47.824;12.092;2023-03-04T12:24:17;96488.50;;;9.71;66.68
16094;BME280;8151;47.824;12.092;2023-03-04T12:26:54;96497.75;;;9.75;67.06
16094;BME280;8151;47.824;12.092;2023-03-04T12:29:33;96483.56;;;9.76;67.14
16094;BME280;8151;47.824;12.092;2023-03-04T12:32:11;96480.09;;;9.75;66.31
16094;BME280;8151;47.824;12.092;2023-03-04T12:35:13;96475.00;;;9.82;65.66
16094;BME280;8151;47.824;12.092;2023-03-04T12:37:59;96478.00;;;9.87;66.20
16094;BME280;8151;47.824;12.092;2023-03-04T12:40:37;96470.06;;;9.87;66.33
16094;BME280;8151;47.824;12.092;2023-03-04T12:43:24;96462.78;;;9.81;65.66
16094;BME280;8151;47.824;12.092;2023-03-04T12:46:01;96475.28;;;9.79;65.75
16094;BME280;8151;47.824;12.092;2023-03-04T12:48:35;96463.41;;;9.75;66.09
16094;BME280;8151;47.824;12.092;2023-03-04T12:51:18;96470.00;;;9.79;65.30
16094;BME280;8151;47.824;12.092;2023-03-04T12:53:58;96463.22;;;9.68;65.47
16094;BME280;8151;47.824;12.092;2023-03-04T12:56:39;96453.81;;;9.65;65.87
16094;BME280;8151;47.824;12.092;2023-03-04T12:59:14;96450.19;;;9.75;65.28
16094;BME280;8151;47.824;12.092;2023-03-04T13:01:48;96451.34;;;9.72;66.15
16094;BME280;8151;47.824;12.092;2023-03-04T13:04:25;96447.53;;;9.66;65.54
16094;BME280;8151;47.824;12.092;2023-03-04T13:07:07;96447.16;;;9.61;65.74
16094;BME280;8151;47.824;12.092;2023-03-04T13:09:45;96441.06;;;9.61;65.47
16094;BME280;8151;47.824;12.092;2023-03-04T13:12:16;96440.75;;;9.56;65.79
16094;BME280;8151;47.824;12.092;2023-03-04T13:15:26;96429.16;;;9.49;65.06
16094;BME280;8151;47.824;12.092;2023-03-04T13:17:56;96429.13;;;9.40;65.72
16094;BME280;8151;47.824;12.092;2023-03-04T13:20:33;96429.75;;;9.34;66.11
16094;BME280;8151;47.824;12.092;2023-03-04T13:23:03;96432.88;;;9.30;66.24
16094;BME280;8151;47.824;12.092;2023-03-04T13:25:48;96427.94;;;9.35;65.90
16094;BME280;8151;47.824;12.092;2023-03-04T13:28:27;96413.59;;;9.37;65.33
16094;BME280;8151;47.824;12.092;2023-03-04T13:31:25;96422.06;;;9.49;64.79
16094;BME280;8151;47.824;12.092;2023-03-04T13:34:03;96418.16;;;9.70;64.57
16094;BME280;8151;47.824;12.092;2023-03-04T13:36:53;96411.25;;;9.85;63.46